Time;durP1;ratioP1;P1;durP2;ratioP2;P2;SDS_P1;SDS_P2;PMS_P1;PMS_P2;Temp;Humidity;BMP_temperature;BMP_pressure;BME280_temperature;BME280_humidity;BME280_pressure;Samples;Min_cycle;Max_cycle;Signal;HPM_P1;HPM_P2
2020/12/07 00:00:46;;;;;;;15.18;10.38;;;;;;;2.68;76.02;100277.66;1693318;82;25797;-78
2020/12/07 00:03:13;;;;;;;15.18;10.58;;;;;;;2.66;75.89;100269.54;1696531;82;25681;-78
2020/12/07 00:05:39;;;;;;;16.77;12.00;;;;;;;2.67;76.07;100263.91;1696203;82;25789;-78
2020/12/07 00:08:05;;;;;;;18.73;12.25;;;;;;;2.65;75.72;100267.09;1701120;82;25712;-78
2020/12/07 00:10:32;;;;;;;16.42;10.40;;;;;;;2.57;75.83;100265.09;1694799;82;25862;-78
2020/12/07 00:12:58;;;;;;;15.50;10.95;;;;;;;2.54;75.85;100267.91;1702037;82;25846;-78
2020/12/07 00:15:24;;;;;;;21.48;11.35;;;;;;;2.54;75.82;100256.77;1695368;82;25718;-78
2020/12/07 00:17:52;;;;;;;16.65;11.40;;;;;;;2.54;75.82;100256.77;1693575;82;25808;-78
2020/12/07 00:20:19;;;;;;;18.67;13.45;;;;;;;2.54;75.84;100257.59;1701479;82;25854;-77
2020/12/07 00:22:45;;;;;;;19.67;12.43;;;;;;;2.53;75.81;100259.80;1698550;82;26563;-78
2020/12/07 00:25:11;;;;;;;20.27;13.60;;;;;;;2.52;75.91;100261.22;1703063;82;26393;-78
2020/12/07 00:27:38;;;;;;;19.48;11.28;;;;;;;2.50;75.94;100266.48;1700056;82;25692;-78
2020/12/07 00:30:06;;;;;;;16.75;11.55;;;;;;;2.50;76.01;100270.82;1698833;82;25281;-78
2020/12/07 00:32:33;;;;;;;19.50;10.80;;;;;;;2.48;75.89;100271.39;1704061;82;25863;-78
2020/12/07 00:35:00;;;;;;;17.25;12.50;;;;;;;2.45;75.77;100267.28;1703150;82;25800;-78
2020/12/07 00:37:26;;;;;;;15.70;11.43;;;;;;;2.44;75.77;100272.92;1699162;81;25788;-79
2020/12/07 00:39:52;;;;;;;17.27;12.03;;;;;;;2.41;75.74;100264.59;1698329;82;26699;-78
2020/12/07 00:42:19;;;;;;;17.48;12.43;;;;;;;2.41;75.76;100270.58;1695848;82;25808;-78
2020/12/07 00:44:46;;;;;;;15.00;10.93;;;;;;;2.37;75.60;100262.73;1698356;82;25716;-78
2020/12/07 00:47:14;;;;;;;15.75;10.40;;;;;;;2.35;75.74;100258.62;1698223;82;25822;-78
2020/12/07 00:49:40;;;;;;;14.20;9.78;;;;;;;2.32;75.63;100263.53;1697346;82;25773;-78
2020/12/07 00:52:08;;;;;;;17.05;10.88;;;;;;;2.29;75.61;100268.92;1692341;82;25914;-78
2020/12/07 00:54:35;;;;;;;15.85;10.15;;;;;;;2.29;75.65;100265.50;1697683;82;25975;-78
2020/12/07 00:57:04;;;;;;;16.42;10.72;;;;;;;2.32;75.72;100270.42;1697999;82;25745;-77
2020/12/07 00:59:33;;;;;;;15.95;11.55;;;;;;;2.26;75.80;100254.94;1700910;82;25802;-78
2020/12/07 01:02:01;;;;;;;17.98;10.98;;;;;;;2.33;75.68;100269.03;1700367;82;25800;-77
2020/12/07 01:04:28;;;;;;;17.17;10.93;;;;;;;2.15;75.77;100244.13;1702584;82;25685;-78
2020/12/07 01:06:55;;;;;;;13.98;9.43;;;;;;;2.15;75.77;100244.13;1707483;82;25825;-78
2020/12/07 01:09:23;;;;;;;16.17;11.38;;;;;;;2.30;75.76;100267.16;1728693;80;25785;-78
2020/12/07 01:11:58;;;;;;;17.92;12.82;;;;;;;2.27;75.58;100245.48;1698745;81;25913;-77
2020/12/07 01:14:26;;;;;;;17.80;12.70;;;;;;;2.27;75.64;100256.61;1698522;82;25829;-78
2020/12/07 01:16:55;;;;;;;15.60;11.53;;;;;;;2.26;75.65;100260.09;1696333;81;25796;-78
2020/12/07 01:19:22;;;;;;;16.75;11.40;;;;;;;2.23;75.63;100253.41;1697255;82;25724;-78
2020/12/07 01:21:49;;;;;;;16.05;11.38;;;;;;;2.23;75.67;100244.86;1698552;82;25752;-78
2020/12/07 01:24:17;;;;;;;16.20;10.63;;;;;;;2.22;75.67;100238.08;1698714;82;25907;-78
2020/12/07 01:26:44;;;;;;;17.23;11.57;;;;;;;2.23;75.68;100234.55;1707208;82;25721;-79
2020/12/07 01:29:11;;;;;;;18.50;11.78;;;;;;;2.22;75.65;100223.89;1701121;82;25652;-78
2020/12/07 01:31:37;;;;;;;14.78;10.50;;;;;;;2.20;75.70;100214.97;1699730;82;26500;-78
2020/12/07 01:34:05;;;;;;;16.48;10.53;;;;;;;2.17;75.76;100201.02;1701338;82;26479;-78
2020/12/07 01:36:32;;;;;;;15.13;10.10;;;;;;;2.19;75.81;100211.23;1683936;82;26382;-78
2020/12/07 01:38:59;;;;;;;13.98;9.35;;;;;;;2.17;75.60;100201.50;1697070;82;25874;-78
2020/12/07 01:41:26;;;;;;;17.32;10.38;;;;;;;2.14;75.54;100197.86;1712250;81;25835;-78
2020/12/07 01:43:53;;;;;;;14.98;10.03;;;;;;;2.11;75.25;100187.78;1728727;81;25822;-78
2020/12/07 01:46:23;;;;;;;13.80;9.80;;;;;;;2.05;75.36;100185.67;1719486;81;25751;-78
2020/12/07 01:48:52;;;;;;;14.35;9.85;;;;;;;2.01;75.56;100183.77;1722955;81;25815;-78
2020/12/07 01:51:19;;;;;;;12.93;9.35;;;;;;;2.03;75.62;100190.11;1716669;81;25868;-78
2020/12/07 01:53:48;;;;;;;15.65;9.33;;;;;;;2.03;75.64;100174.64;1723402;81;25722;-77
2020/12/07 01:56:28;;;;;;;12.50;9.45;;;;;;;2.00;75.54;100174.41;1719360;81;25700;-77
2020/12/07 01:58:58;;;;;;;17.12;10.48;;;;;;;1.98;75.57;100187.87;1715499;81;27003;-77
2020/12/07 02:01:27;;;;;;;14.00;10.05;;;;;;;1.98;75.70;100187.39;1711176;81;25647;-77
2020/12/07 02:03:55;;;;;;;14.75;9.30;;;;;;;2.00;75.75;100183.42;1706189;81;25803;-77
2020/12/07 02:06:21;;;;;;;18.73;11.45;;;;;;;1.97;75.70;100174.17;1716262;81;26015;-78
2020/12/07 02:08:50;;;;;;;16.37;10.88;;;;;;;1.98;75.65;100174.51;1688399;83;26389;-78
2020/12/07 02:11:18;;;;;;;;;;;;;;;1.98;75.70;100190.45;1714471;81;26285;-77
2020/12/07 02:13:46;;;;;;;15.93;10.90;;;;;;;1.97;75.77;100189.63;1718449;81;25811;-78
2020/12/07 02:16:12;;;;;;;17.00;9.85;;;;;;;1.97;75.79;100179.80;1719759;81;25775;-77
2020/12/07 02:18:43;;;;;;;13.55;10.00;;;;;;;1.97;75.79;100182.38;1721473;81;25726;-78
2020/12/07 02:21:10;;;;;;;15.03;9.73;;;;;;;1.97;75.50;100183.66;1720745;81;25898;-78
2020/12/07 02:23:55;;;;;;;15.65;10.85;;;;;;;1.97;75.50;100183.66;1711038;81;25767;-78
2020/12/07 02:26:23;;;;;;;13.38;10.20;;;;;;;1.94;75.70;100189.86;1719003;81;26723;-78
2020/12/07 02:28:51;;;;;;;12.53;8.75;;;;;;;1.92;75.74;100194.77;1718097;81;25755;-78
2020/12/07 02:31:19;;;;;;;16.20;9.03;;;;;;;1.90;75.59;100188.91;1715137;81;25685;-79
2020/12/07 02:33:45;;;;;;;15.05;9.18;;;;;;;1.88;75.54;100185.61;1673532;81;26518;-78
2020/12/07 02:36:13;;;;;;;14.83;9.53;;;;;;;1.83;75.54;100171.80;1715280;81;26745;-79
2020/12/07 02:38:41;;;;;;;13.38;9.55;;;;;;;1.83;75.69;100183.39;1688557;81;26198;-78
2020/12/07 02:41:08;;;;;;;12.13;8.90;;;;;;;1.84;75.78;100181.16;1723018;81;26378;-79
2020/12/07 02:43:35;;;;;;;10.28;7.65;;;;;;;1.83;75.59;100186.41;1700634;82;25765;-79
2020/12/07 02:46:02;;;;;;;11.78;8.25;;;;;;;1.80;75.58;100181.49;1705529;81;25696;-78
2020/12/07 02:48:29;;;;;;;12.82;7.33;;;;;;;1.81;75.65;100175.42;1706581;82;25700;-78
2020/12/07 02:50:57;;;;;;;9.83;7.17;;;;;;;1.80;75.68;100176.34;1712544;82;25723;-78
2020/12/07 02:53:24;;;;;;;10.65;7.50;;;;;;;1.77;75.57;100194.98;1708375;82;25736;-79
2020/12/07 02:55:51;;;;;;;12.07;7.35;;;;;;;1.77;75.61;100185.95;1743462;80;25869;-79
2020/12/07 02:58:17;;;;;;;11.83;9.10;;;;;;;1.78;75.63;100182.44;1706027;82;26367;-78
2020/12/07 03:00:45;;;;;;;12.50;9.70;;;;;;;1.78;75.70;100166.16;1704493;81;26273;-78
2020/12/07 03:03:13;;;;;;;13.75;9.48;;;;;;;1.80;75.76;100156.58;1711299;81;25831;-78
2020/12/07 03:05:40;;;;;;;14.73;8.88;;;;;;;1.81;75.76;100162.54;1706512;82;25876;-78
2020/12/07 03:08:08;;;;;;;12.30;8.18;;;;;;;1.83;75.79;100158.07;1705723;82;25911;-78
2020/12/07 03:10:35;;;;;;;10.60;6.92;;;;;;;1.80;75.47;100160.88;1700386;82;25741;-79
2020/12/07 03:13:01;;;;;;;12.53;7.83;;;;;;;1.75;75.47;100167.68;1700158;81;25804;-78
2020/12/07 03:15:29;;;;;;;10.95;7.05;;;;;;;1.70;75.40;100164.14;1700579;82;25843;-78
2020/12/07 03:17:56;;;;;;;10.10;6.95;;;;;;;1.67;75.50;100159.22;1707864;82;25276;-78
2020/12/07 03:20:24;;;;;;;9.43;6.22;;;;;;;1.67;75.48;100166.14;1707317;82;26557;-79
2020/12/07 03:22:52;;;;;;;7.40;5.85;;;;;;;1.63;75.52;100159.08;1702944;82;25816;-79
2020/12/07 03:25:18;;;;;;;11.08;7.03;;;;;;;1.61;75.56;100163.55;1710093;81;26480;-79
2020/12/07 03:27:46;;;;;;;12.10;6.92;;;;;;;1.57;75.54;100156.14;1713424;81;25711;-78
2020/12/07 03:30:13;;;;;;;9.50;6.35;;;;;;;1.57;75.74;100154.86;1708041;82;25806;-78
2020/12/07 03:32:40;;;;;;;10.30;6.92;;;;;;;1.58;75.75;100156.48;1713540;81;25716;-78
2020/12/07 03:35:06;;;;;;;9.85;6.83;;;;;;;1.60;75.83;100159.78;1708971;82;25794;-79
2020/12/07 03:37:33;;;;;;;10.43;7.40;;;;;;;1.62;75.78;100163.07;1707795;82;25748;-79
2020/12/07 03:40:01;;;;;;;11.95;8.15;;;;;;;1.61;75.78;100151.11;1717082;82;26483;-78
2020/12/07 03:42:29;;;;;;;12.80;8.25;;;;;;;1.59;75.75;100170.55;1707144;81;26421;-78
2020/12/07 03:44:57;;;;;;;10.70;8.38;;;;;;;1.58;75.80;100168.08;1703425;82;25632;-79
2020/12/07 03:47:24;;;;;;;9.10;7.33;;;;;;;1.59;75.91;100169.27;1701930;82;25778;-79
2020/12/07 03:49:50;;;;;;;11.45;7.72;;;;;;;1.60;75.99;100178.63;1687876;82;26595;-78
2020/12/07 03:52:18;;;;;;;11.83;7.78;;;;;;;1.62;75.97;100178.05;1672203;82;25832;-79
2020/12/07 03:54:45;;;;;;;12.85;8.25;;;;;;;1.63;75.98;100177.58;1685125;82;26438;-78
2020/12/07 03:57:11;;;;;;;11.60;8.98;;;;;;;1.65;75.91;100178.30;1710473;82;25779;-79
2020/12/07 03:59:38;;;;;;;11.95;8.38;;;;;;;1.65;75.92;100173.14;1704707;82;25784;-79
2020/12/07 04:02:05;;;;;;;11.25;8.33;;;;;;;1.64;75.94;100174.09;1693879;82;27471;-79
2020/12/07 04:04:44;;;;;;;11.63;7.35;;;;;;;1.62;75.95;100166.94;1713119;82;25721;-79
2020/12/07 04:07:01;;;;;;;9.63;7.00;;;;;;;1.61;75.93;100163.55;1707408;82;26539;-78
2020/12/07 04:09:27;;;;;;;10.00;7.78;;;;;;;1.61;75.94;100170.42;1699784;83;26478;-78
2020/12/07 04:11:53;;;;;;;9.73;6.72;;;;;;;1.62;76.06;100172.09;1708305;82;26012;-78
2020/12/07 04:14:20;;;;;;;11.15;7.08;;;;;;;1.63;75.95;100169.85;1703477;82;26417;-78
2020/12/07 04:16:46;;;;;;;10.78;7.33;;;;;;;1.62;75.92;100177.23;1707620;82;25828;-78
2020/12/07 04:19:12;;;;;;;11.45;7.05;;;;;;;1.61;75.98;100180.28;1715689;82;26291;-78
2020/12/07 04:21:38;;;;;;;11.60;6.95;;;;;;;1.62;76.07;100182.39;1709373;82;26362;-78
2020/12/07 04:24:04;;;;;;;12.10;8.00;;;;;;;1.63;76.09;100186.13;1705547;81;25859;-78
2020/12/07 04:26:31;;;;;;;10.32;7.50;;;;;;;1.63;76.04;100173.72;1705458;82;25848;-78
2020/12/07 04:28:59;;;;;;;9.50;7.03;;;;;;;1.64;76.10;100177.95;1711287;81;25707;-78
2020/12/07 04:31:25;;;;;;;11.22;6.90;;;;;;;1.66;76.09;100175.59;1706263;82;26340;-78
2020/12/07 04:33:51;;;;;;;9.53;7.03;;;;;;;1.65;76.06;100174.44;1717169;82;25756;-78
2020/12/07 04:36:18;;;;;;;11.60;8.18;;;;;;;1.67;76.05;100172.58;1699983;82;26126;-78
2020/12/07 04:38:44;;;;;;;11.03;8.05;;;;;;;1.67;75.99;100176.44;1715485;82;25876;-79
2020/12/07 04:41:10;;;;;;;10.68;7.55;;;;;;;1.66;76.02;100167.05;1707588;81;25877;-78
2020/12/07 04:43:37;;;;;;;10.72;7.70;;;;;;;1.66;75.99;100166.58;1699951;81;25828;-79
2020/12/07 04:46:03;;;;;;;10.72;7.33;;;;;;;1.67;75.99;100168.23;1672976;83;25833;-78
2020/12/07 04:48:30;;;;;;;9.15;6.72;;;;;;;1.64;75.97;100180.53;1688955;83;26267;-78
2020/12/07 04:50:56;;;;;;;11.05;7.55;;;;;;;1.62;76.00;100162.59;1686280;83;25836;-78
2020/12/07 04:53:24;;;;;;;8.78;6.45;;;;;;;1.63;75.97;100184.02;1684284;82;26236;-78
2020/12/07 04:55:50;;;;;;;10.58;7.35;;;;;;;1.61;75.94;100176.86;1686385;83;26454;-78
2020/12/07 04:58:17;;;;;;;10.10;6.75;;;;;;;1.59;76.01;100175.70;1690213;83;25740;-78
2020/12/07 05:00:44;;;;;;;8.60;6.25;;;;;;;1.61;76.11;100175.58;1669958;84;25864;-77
2020/12/07 05:03:11;;;;;;;10.48;7.30;;;;;;;1.63;76.09;100167.28;1687771;82;25795;-78
2020/12/07 05:05:37;;;;;;;10.20;7.08;;;;;;;1.65;76.08;100173.14;1689026;82;25343;-78
2020/12/07 05:08:03;;;;;;;8.88;6.40;;;;;;;1.64;75.99;100158.64;1692871;82;25627;-79
2020/12/07 05:10:37;;;;;;;10.50;6.72;;;;;;;1.61;75.98;100164.83;1691634;82;25739;-78
2020/12/07 05:13:12;;;;;;;10.20;7.28;;;;;;;1.64;76.00;100176.66;1686320;83;26406;-78
2020/12/07 05:15:30;;;;;;;9.80;7.28;;;;;;;1.62;75.84;100165.17;1679323;82;25867;-78
2020/12/07 05:17:58;;;;;;;9.23;6.72;;;;;;;1.61;75.88;100174.28;1677969;82;25848;-78
2020/12/07 05:20:26;;;;;;;10.75;7.47;;;;;;;1.60;75.90;100172.66;1685961;82;25769;-78
2020/12/07 05:22:53;;;;;;;10.48;7.22;;;;;;;1.57;75.95;100171.59;1688207;83;26434;-78
2020/12/07 05:25:19;;;;;;;14.87;7.28;;;;;;;1.58;75.91;100161.16;1691039;82;26305;-79
2020/12/07 05:27:49;;;;;;;9.45;6.85;;;;;;;1.57;75.90;100158.25;1688087;83;26276;-79
2020/12/07 05:32:50;;;;;;;9.10;6.33;;;;;;;1.57;75.93;100157.43;1693084;83;25617;-78
2020/12/07 05:35:16;;;;;;;11.45;7.10;;;;;;;1.57;75.97;100148.42;1687694;82;26365;-77
2020/12/07 05:37:43;;;;;;;20.82;9.83;;;;;;;1.56;75.91;100152.75;1685368;82;25707;-78
2020/12/07 05:40:13;;;;;;;11.22;7.85;;;;;;;1.60;75.96;100155.91;1677404;83;25806;-78
2020/12/07 05:42:41;;;;;;;11.80;7.28;;;;;;;1.62;75.99;100163.07;1698830;81;25831;-78
2020/12/07 05:45:09;;;;;;;11.53;7.22;;;;;;;1.63;75.92;100151.83;1710414;82;26452;-78
2020/12/07 05:47:38;;;;;;;10.98;7.28;;;;;;;1.65;75.88;100143.05;1705788;81;25834;-78
2020/12/07 05:50:09;;;;;;;12.68;7.65;;;;;;;1.63;75.74;100159.55;1703311;82;26373;-78
2020/12/07 05:52:50;;;;;;;11.93;7.58;;;;;;;1.62;75.86;100161.31;1703983;82;27448;-78
2020/12/07 05:55:19;;;;;;;12.90;7.67;;;;;;;1.61;75.76;100162.26;1699763;82;25764;-78
2020/12/07 05:58:03;;;;;;;10.27;7.30;;;;;;;1.62;75.88;100168.22;1707683;82;26563;-78
2020/12/07 06:00:38;;;;;;;11.57;8.68;;;;;;;1.65;75.94;100167.99;1703666;81;25863;-78
2020/12/07 06:03:06;;;;;;;11.43;7.40;;;;;;;1.62;75.80;100161.31;1712576;82;25871;-78
2020/12/07 06:05:33;;;;;;;12.45;8.48;;;;;;;1.63;75.76;100154.40;1706808;82;26536;-78
2020/12/07 06:08:05;;;;;;;11.35;8.55;;;;;;;1.61;75.80;100148.53;1704894;82;25874;-78
2020/12/07 06:10:42;;;;;;;13.48;8.90;;;;;;;1.63;75.67;100145.38;1701694;82;25687;-78
2020/12/07 06:13:17;;;;;;;11.65;7.60;;;;;;;1.58;75.59;100151.34;1700925;82;26446;-78
2020/12/07 06:15:48;;;;;;;12.18;8.60;;;;;;;1.54;75.62;100144.31;1713336;82;25883;-78
2020/12/07 06:18:42;;;;;;;12.05;7.97;;;;;;;1.54;75.73;100140.45;1713442;81;25867;-78
2020/12/07 06:21:17;;;;;;;13.98;8.53;;;;;;;1.53;75.69;100152.51;1662963;84;25741;-78
2020/12/07 06:23:46;;;;;;;10.82;7.20;;;;;;;1.51;75.65;100164.67;1666688;83;25776;-78
2020/12/07 06:26:17;;;;;;;13.38;8.00;;;;;;;1.50;75.70;100161.75;1669393;83;25721;-78
2020/12/07 06:28:46;;;;;;;12.20;7.15;;;;;;;1.52;75.67;100166.77;1667355;84;26439;-78
2020/12/07 06:31:18;;;;;;;11.60;8.27;;;;;;;1.49;75.69;100167.00;1670280;83;26507;-78
2020/12/07 06:33:53;;;;;;;12.00;8.05;;;;;;;1.52;75.82;100169.34;1669396;83;26285;-78
2020/12/07 06:36:32;;;;;;;11.12;7.65;;;;;;;1.55;75.76;100162.23;1669056;84;25794;-78
2020/12/07 06:39:11;;;;;;;14.23;9.23;;;;;;;1.55;75.69;100165.26;1666954;83;25723;-78
2020/12/07 06:41:41;;;;;;;13.25;8.85;;;;;;;1.54;75.58;100166.20;1668566;83;25301;-78
2020/12/07 06:44:14;;;;;;;12.30;7.70;;;;;;;1.53;75.68;100156.84;1664456;84;26393;-78
2020/12/07 06:47:04;;;;;;;12.82;8.70;;;;;;;1.53;75.61;100167.96;1663562;84;25697;-78
2020/12/07 06:49:48;;;;;;;13.62;9.40;;;;;;;1.53;75.64;100167.96;1676668;83;25729;-78
2020/12/07 06:52:11;;;;;;;13.90;8.80;;;;;;;1.54;75.58;100168.78;1666932;84;25404;-78
2020/12/07 06:57:32;;;;;;;11.75;7.95;;;;;;;1.54;75.37;100172.64;1618974;86;26158;-78
2020/12/07 07:00:03;;;;;;;18.27;9.00;;;;;;;1.50;75.41;100174.62;1622096;86;25777;-78
2020/12/07 07:02:30;;;;;;;11.73;8.73;;;;;;;1.44;75.43;100163.45;1619400;86;26786;-78
2020/12/07 07:04:59;;;;;;;12.55;7.87;;;;;;;1.48;75.44;100173.91;1620700;86;25775;-78
2020/12/07 07:07:29;;;;;;;12.03;7.95;;;;;;;1.49;75.45;100172.14;1620500;86;25738;-78
2020/12/07 07:09:56;;;;;;;10.93;8.03;;;;;;;1.48;75.00;100170.52;1616961;86;25894;-78
2020/12/07 07:12:23;;;;;;;16.70;8.28;;;;;;;1.48;75.00;100170.52;1614655;86;26965;-78
2020/12/07 07:14:57;;;;;;;14.75;7.53;;;;;;;1.47;75.25;100166.28;1618521;86;26495;-78
2020/12/07 07:17:33;;;;;;;10.72;7.67;;;;;;;1.45;75.13;100172.03;1620694;86;25743;-78
2020/12/07 07:20:02;;;;;;;13.98;9.00;;;;;;;1.45;75.14;100167.70;1605567;87;26415;-78
2020/12/07 07:22:28;;;;;;;12.78;8.43;;;;;;;1.47;75.26;100170.14;1629047;85;26321;-78
2020/12/07 07:25:18;;;;;;;11.63;7.60;;;;;;;1.50;75.24;100169.92;1630512;86;25796;-77
2020/12/07 07:30:18;;;;;;;16.52;7.85;;;;;;;1.49;75.02;100172.14;1630350;86;25916;-78
2020/12/07 07:32:48;;;;;;;13.65;8.25;;;;;;;1.47;74.82;100158.11;1629051;86;26603;-78
2020/12/07 07:35:17;;;;;;;13.53;7.87;;;;;;;1.47;74.65;100155.53;1627107;86;26879;-77
2020/12/07 07:37:44;;;;;;;13.70;7.53;;;;;;;1.46;74.51;100159.50;1607724;87;25963;-78
2020/12/07 07:40:16;;;;;;;14.60;7.62;;;;;;;1.46;74.65;100155.16;1629396;86;26010;-78
2020/12/07 07:42:53;;;;;;;11.18;7.67;;;;;;;1.48;74.80;100157.64;1627389;86;25845;-79
2020/12/07 07:45:35;;;;;;;13.00;8.20;;;;;;;1.51;74.77;100176.26;1630880;86;26298;-78
2020/12/07 08:06:06;;;;;;;16.73;9.25;;;;;;;1.44;74.08;100166.03;1673722;83;26426;-78
2020/12/07 08:12:39;;;;;;;19.15;9.43;;;;;;;1.47;74.01;100178.72;1672073;83;25887;-78
2020/12/07 08:17:18;;;;;;;12.70;8.38;;;;;;;1.51;73.80;100192.18;1675078;83;26413;-78
2020/12/07 08:19:47;;;;;;;15.30;8.88;;;;;;;1.49;73.77;100189.70;1673303;83;25897;-78
2020/12/07 08:22:15;;;;;;;13.95;7.20;;;;;;;1.51;73.43;100184.45;1674956;83;25731;-78
2020/12/07 08:24:55;;;;;;;12.65;7.95;;;;;;;1.51;73.49;100193.47;1676159;83;25787;-78
2020/12/07 08:27:21;;;;;;;15.13;8.58;;;;;;;1.51;73.44;100189.61;1675349;83;26363;-78
2020/12/07 08:29:47;;;;;;;14.45;7.17;;;;;;;1.53;73.43;100196.30;1676473;83;26332;-78
2020/12/07 08:32:22;;;;;;;18.50;8.25;;;;;;;1.54;73.44;100197.11;1673686;83;25317;-78
2020/12/07 08:34:49;;;;;;;12.37;7.67;;;;;;;1.58;73.66;100195.12;1679489;83;25753;-77
2020/12/07 08:37:15;;;;;;;11.55;7.40;;;;;;;1.64;73.71;100195.98;1681902;83;25707;-78
2020/12/07 08:39:42;;;;;;;13.48;8.45;;;;;;;1.68;73.41;100202.55;1672522;83;26368;-78
2020/12/07 08:42:08;;;;;;;12.75;6.65;;;;;;;1.68;73.46;100195.63;1646843;85;25863;-78
2020/12/07 08:44:35;;;;;;;14.40;8.33;;;;;;;1.70;72.95;100195.53;1675192;83;25961;-78
2020/12/07 08:47:01;;;;;;;11.08;7.53;;;;;;;1.70;72.89;100197.63;1694268;82;25716;-78
2020/12/07 08:49:27;;;;;;;13.58;7.95;;;;;;;1.71;72.79;100184.28;1672500;83;25920;-77
2020/12/07 08:51:54;;;;;;;17.60;8.65;;;;;;;1.70;72.62;100192.48;1675211;83;25754;-78
2020/12/07 08:54:20;;;;;;;12.37;7.75;;;;;;;1.71;72.99;100195.40;1674139;83;25687;-79
2020/12/07 08:56:47;;;;;;;14.63;8.83;;;;;;;1.77;72.82;100191.55;1657350;84;25708;-79
2020/12/07 08:59:14;;;;;;;13.72;8.60;;;;;;;1.78;72.50;100184.20;1671057;83;25912;-80
2020/12/07 09:01:41;;;;;;;15.88;7.67;;;;;;;1.78;72.44;100190.16;1674369;83;25869;-78
2020/12/07 09:04:10;;;;;;;12.10;7.50;;;;;;;1.78;72.47;100183.73;1673824;83;26013;-78
2020/12/07 09:06:36;;;;;;;15.53;8.15;;;;;;;1.80;72.39;100176.34;1671966;83;26088;-78
2020/12/07 09:09:05;;;;;;;14.18;8.18;;;;;;;1.80;72.39;100183.63;1677121;83;25763;-80
2020/12/07 09:11:31;;;;;;;12.30;8.10;;;;;;;1.82;72.24;100179.63;1674783;83;25775;-78
2020/12/07 09:13:57;;;;;;;11.53;7.45;;;;;;;1.81;72.10;100176.23;1674954;83;26374;-78
2020/12/07 09:16:24;;;;;;;12.03;7.92;;;;;;;1.85;72.15;100178.92;1674339;83;25776;-78
2020/12/07 09:18:50;;;;;;;14.53;8.60;;;;;;;1.85;72.30;100180.22;1675240;83;25924;-79
2020/12/07 09:21:16;;;;;;;15.15;8.38;;;;;;;1.90;72.25;100167.81;1699157;81;25786;-79
2020/12/07 09:23:43;;;;;;;12.47;7.72;;;;;;;1.96;72.45;100168.67;1684455;83;26397;-78
2020/12/07 09:26:09;;;;;;;15.83;9.35;;;;;;;2.00;72.28;100187.30;1681025;83;25901;-78
2020/12/07 09:28:36;;;;;;;12.70;7.62;;;;;;;2.03;72.35;100174.17;1680084;83;25767;-79
2020/12/07 09:31:06;;;;;;;14.53;7.90;;;;;;;2.07;72.13;100172.99;1682572;83;25823;-79
2020/12/07 09:33:34;;;;;;;;;;;;;;;2.07;71.89;100169.59;1676326;83;25865;-79
2020/12/07 09:36:01;;;;;;;19.48;10.45;;;;;;;2.07;71.91;100172.18;1676379;83;25814;-78
2020/12/07 09:38:28;;;;;;;16.40;9.00;;;;;;;2.05;71.95;100173.59;1674987;83;25758;-79
2020/12/07 09:40:55;;;;;;;12.50;8.73;;;;;;;2.09;71.69;100176.76;1684484;83;25858;-78
2020/12/07 09:43:21;;;;;;;13.45;8.75;;;;;;;2.10;72.10;100177.95;1680289;83;25883;-79
2020/12/07 09:45:48;;;;;;;15.10;8.10;;;;;;;2.15;71.82;100170.66;1682066;83;25830;-78
2020/12/07 09:48:14;;;;;;;13.28;7.92;;;;;;;2.17;71.71;100178.30;1680302;83;25826;-78
2020/12/07 09:50:41;;;;;;;13.15;7.62;;;;;;;2.17;71.67;100174.42;1684177;83;25726;-79
2020/12/07 09:53:15;;;;;;;16.25;8.00;;;;;;;2.18;70.99;100161.88;1680281;83;25730;-78
2020/12/07 09:55:38;;;;;;;9.73;7.58;;;;;;;2.16;71.10;100167.64;1681274;83;25819;-79
2020/12/07 09:58:05;;;;;;;11.48;7.87;;;;;;;2.17;71.13;100167.98;1684356;83;26295;-78
2020/12/07 10:00:31;;;;;;;14.05;7.90;;;;;;;2.18;70.96;100164.45;1692641;83;26232;-78
2020/12/07 10:02:58;;;;;;;12.23;7.30;;;;;;;2.18;71.12;100171.75;1689739;83;25836;-79
2020/12/07 10:05:24;;;;;;;13.18;8.58;;;;;;;2.21;70.84;100171.98;1680731;83;25850;-79
2020/12/07 10:07:50;;;;;;;13.20;8.65;;;;;;;2.25;71.33;100176.44;1684751;83;26298;-79
2020/12/07 10:10:17;;;;;;;14.73;9.20;;;;;;;2.29;71.22;100173.52;1662153;83;25747;-78
2020/12/07 10:12:43;;;;;;;17.90;9.58;;;;;;;2.31;70.90;100172.91;1682827;83;25825;-79
2020/12/07 10:15:09;;;;;;;14.63;9.30;;;;;;;2.32;70.89;100176.30;1678905;83;25671;-79
2020/12/07 10:17:36;;;;;;;16.80;10.00;;;;;;;2.34;70.63;100163.64;1679256;83;25944;-79
2020/12/07 10:20:04;;;;;;;17.20;10.20;;;;;;;2.36;70.35;100179.02;1688283;82;25886;-79
2020/12/07 10:22:31;;;;;;;14.70;9.80;;;;;;;2.34;70.34;100177.83;1652622;85;26401;-78
2020/12/07 10:24:57;;;;;;;13.90;9.03;;;;;;;2.34;70.13;100164.12;1671819;84;25851;-79
2020/12/07 10:27:24;;;;;;;12.33;7.95;;;;;;;2.33;69.74;100179.25;1673010;83;25693;-79
2020/12/07 10:29:50;;;;;;;16.17;8.63;;;;;;;2.35;70.44;100182.06;1670759;83;27047;-79
2020/12/07 10:32:16;;;;;;;18.42;8.53;;;;;;;2.40;70.55;100177.38;1666528;83;26456;-79
2020/12/07 10:34:43;;;;;;;15.05;7.50;;;;;;;2.49;70.32;100166.02;1664593;83;26444;-79
2020/12/07 10:37:10;;;;;;;14.00;8.95;;;;;;;2.51;70.46;100170.56;1664840;83;25791;-79
2020/12/07 10:39:36;;;;;;;18.25;8.45;;;;;;;2.59;70.35;100168.21;1670106;83;25869;-79
2020/12/07 10:42:03;;;;;;;14.38;9.08;;;;;;;2.62;70.19;100171.88;1673677;83;25711;-78
2020/12/07 10:44:29;;;;;;;15.30;9.40;;;;;;;2.66;70.40;100164.23;1669603;83;26396;-78
2020/12/07 10:46:56;;;;;;;15.48;8.38;;;;;;;2.72;70.16;100163.75;1668057;83;26408;-79
2020/12/07 10:49:22;;;;;;;12.00;7.85;;;;;;;2.75;70.05;100153.66;1666284;83;25835;-79
2020/12/07 10:51:48;;;;;;;14.65;8.93;;;;;;;2.78;69.93;100157.28;1670150;83;26372;-78
2020/12/07 10:54:16;;;;;;;16.05;9.13;;;;;;;2.67;69.89;100138.77;1669506;83;25639;-79
2020/12/07 10:56:44;;;;;;;13.95;8.85;;;;;;;2.78;69.80;100171.48;1666633;83;25817;-79
2020/12/07 10:59:12;;;;;;;15.48;9.50;;;;;;;2.78;69.70;100170.19;1670057;83;25860;-79
2020/12/07 11:01:38;;;;;;;13.20;8.65;;;;;;;2.75;69.36;100167.84;1671867;83;26553;-79
2020/12/07 11:04:04;;;;;;;15.13;8.45;;;;;;;2.77;69.84;100168.08;1669646;83;25760;-79
2020/12/07 11:06:34;;;;;;;14.63;8.48;;;;;;;2.80;69.70;100169.13;1663190;84;25673;-79
2020/12/07 11:09:04;;;;;;;13.83;8.80;;;;;;;2.95;69.76;100157.27;1669015;83;26508;-79
2020/12/07 11:11:27;;;;;;;14.33;9.25;;;;;;;2.95;69.76;100157.27;1666254;83;25750;-78
2020/12/07 11:13:53;;;;;;;20.75;8.98;;;;;;;3.01;69.27;100156.30;1669354;83;26322;-79
2020/12/07 11:16:24;;;;;;;14.68;8.70;;;;;;;2.93;68.32;100148.83;1666497;84;25679;-79
2020/12/07 11:18:52;;;;;;;13.13;8.15;;;;;;;2.93;68.32;100148.83;1657713;84;26636;-79
2020/12/07 11:21:21;;;;;;;12.82;7.62;;;;;;;3.06;68.91;100159.83;1671813;83;25843;-79
2020/12/07 11:23:49;;;;;;;14.28;9.05;;;;;;;3.17;68.21;100147.36;1660335;83;25826;-79
2020/12/07 11:26:18;;;;;;;14.75;9.60;;;;;;;3.17;68.21;100147.36;1667363;83;26299;-79
2020/12/07 11:28:46;;;;;;;19.52;10.10;;;;;;;3.19;68.85;100150.17;1664710;84;25733;-79
2020/12/07 11:31:15;;;;;;;18.27;10.90;;;;;;;3.24;68.63;100140.26;1671326;83;26634;-79
2020/12/07 11:33:43;;;;;;;14.23;8.73;;;;;;;3.23;68.10;100134.76;1675448;83;25837;-79
2020/12/07 11:36:10;;;;;;;17.90;9.33;;;;;;;3.23;68.10;100134.76;1662400;83;25786;-79
2020/12/07 11:38:41;;;;;;;12.65;8.25;;;;;;;3.38;68.38;100168.04;1665732;83;25847;-79
2020/12/07 11:41:29;;;;;;;17.15;10.10;;;;;;;3.37;68.22;100162.53;1668789;83;26724;-78
2020/12/07 11:46:40;;;;;;;13.13;8.65;;;;;;;3.31;67.95;100157.39;1665676;83;25901;-78
2020/12/07 11:49:01;;;;;;;14.83;7.40;;;;;;;3.28;67.52;100155.87;1668991;83;25861;-78
2020/12/07 11:51:28;;;;;;;13.03;7.75;;;;;;;3.20;67.63;100156.14;1666584;83;26421;-78
2020/12/07 11:53:55;;;;;;;13.85;8.35;;;;;;;3.20;67.63;100156.14;1663646;83;26781;-78
2020/12/07 11:56:35;;;;;;;14.13;8.85;;;;;;;3.13;67.34;100151.11;1659947;83;27210;-78
2020/12/07 11:59:02;;;;;;;13.43;8.37;;;;;;;3.14;67.51;100154.03;1666705;83;25751;-78
2020/12/07 12:01:33;;;;;;;14.85;7.50;;;;;;;3.09;67.44;100155.23;1668972;83;25748;-78
2020/12/07 12:04:01;;;;;;;14.55;8.13;;;;;;;3.08;67.87;100148.44;1663517;83;25267;-78